createdAt,value
2022-08-03T00:00:17.469Z,96.69
2022-08-03T00:01:17.618Z,96.89
2022-08-03T00:02:17.980Z,96.78
2022-08-03T00:03:17.955Z,96.78
2022-08-03T00:04:18.025Z,96.48
2022-08-03T00:05:18.180Z,96.78
2022-08-03T00:06:18.299Z,96.93
2022-08-03T00:07:18.474Z,96.89
2022-08-03T00:08:19.579Z,96.83
2022-08-03T00:09:18.744Z,96.83
2022-08-03T00:10:18.839Z,97.03
2022-08-03T00:11:18.986Z,97.13
2022-08-03T00:12:19.287Z,97.24
2022-08-03T00:13:19.267Z,97.24
2022-08-03T00:14:19.367Z,97.24
2022-08-03T00:15:19.507Z,97.13
2022-08-03T00:16:19.670Z,96.93
2022-08-03T00:17:19.834Z,96.93
2022-08-03T00:18:19.906Z,97.03
2022-08-03T00:19:20.056Z,96.73
2022-08-03T00:20:20.179Z,96.73
2022-08-03T00:21:20.287Z,96.93
2022-08-03T00:22:20.481Z,96.83
2022-08-03T00:23:20.567Z,97.03
2022-08-03T00:24:20.720Z,97.13
2022-08-03T00:25:20.867Z,97.03
2022-08-03T00:26:21.044Z,96.93
2022-08-03T00:27:21.160Z,96.93
2022-08-03T00:28:21.260Z,97.28
2022-08-03T00:29:21.407Z,97.58
2022-08-03T00:30:21.555Z,97.69
2022-08-03T00:31:27.780Z,97.78
2022-08-03T00:32:24.079Z,97.78
2022-08-03T00:33:21.977Z,97.78
2022-08-03T00:34:29.822Z,97.99
2022-08-03T00:35:32.606Z,97.89
2022-08-03T00:36:23.297Z,97.89
2022-08-03T00:37:22.388Z,97.84
2022-08-03T00:38:23.517Z,97.74
2022-08-03T00:39:22.617Z,97.84
2022-08-03T00:40:22.739Z,97.74
2022-08-03T00:41:22.847Z,97.64
2022-08-03T00:42:23.017Z,97.24
2022-08-03T00:43:24.170Z,97.24
2022-08-03T00:44:23.238Z,97.33
2022-08-03T00:45:23.424Z,97.64
2022-08-03T00:46:23.572Z,97.74
2022-08-03T00:47:23.718Z,97.74
2022-08-03T00:48:32.830Z,97.58
2022-08-03T00:49:25.050Z,97.69
2022-08-03T00:50:24.087Z,97.89
2022-08-03T00:51:24.224Z,98.29
2022-08-03T00:52:24.318Z,98.59
2022-08-03T00:53:24.488Z,98.59
2022-08-03T00:54:24.659Z,98.49
2022-08-03T00:55:24.788Z,98.29
2022-08-03T00:56:24.887Z,98.39
2022-08-03T00:57:25.046Z,98.69
2022-08-03T00:58:25.209Z,98.74
2022-08-03T00:59:25.305Z,98.84
2022-08-03T01:00:25.446Z,98.94
2022-08-03T01:01:25.630Z,99.04
2022-08-03T01:02:25.668Z,98.94
2022-08-03T01:03:25.826Z,99.04
2022-08-03T01:04:25.980Z,99.14
2022-08-03T01:05:26.087Z,99.34
2022-08-03T01:06:26.208Z,99.34
2022-08-03T01:07:26.355Z,99.54
2022-08-03T01:08:26.498Z,99.65
2022-08-03T01:09:28.648Z,99.85
2022-08-03T01:10:26.798Z,99.74
2022-08-03T01:11:26.898Z,99.65
2022-08-03T01:12:27.039Z,99.65
2022-08-03T01:14:03.447Z,99.34
2022-08-03T01:14:28.297Z,99.24
2022-08-03T01:15:27.426Z,99.24
2022-08-03T01:16:35.882Z,99.24
2022-08-03T01:17:28.689Z,99.34
2022-08-03T01:18:27.810Z,99.54
2022-08-03T01:19:27.975Z,99.54
2022-08-03T01:20:28.108Z,99.54
2022-08-03T01:21:28.269Z,99.44
2022-08-03T01:22:28.438Z,99.44
2022-08-03T01:23:29.047Z,99.54
2022-08-03T01:24:28.736Z,99.79
2022-08-03T01:25:28.882Z,99.79
2022-08-03T01:26:29.049Z,99.89
2022-08-03T01:27:29.144Z,99.99
2022-08-03T01:28:29.298Z,99.99
2022-08-03T01:29:29.466Z,99.99
2022-08-03T01:30:29.677Z,99.99
2022-08-03T01:31:29.739Z,99.99
2022-08-03T01:33:02.226Z,99.99
2022-08-03T01:33:31.010Z,99.99
2022-08-03T01:34:30.214Z,99.99
2022-08-03T01:35:30.289Z,99.99
2022-08-03T01:36:30.485Z,99.89
2022-08-03T01:37:30.579Z,99.89
2022-08-03T01:38:30.759Z,99.89
2022-08-03T01:39:30.839Z,99.99
2022-08-03T01:40:30.978Z,99.99
2022-08-03T01:41:31.167Z,99.99
2022-08-03T01:42:31.308Z,99.99
2022-08-03T01:43:55.217Z,99.99
2022-08-03T01:44:32.597Z,99.99
2022-08-03T01:45:33.999Z,99.99
2022-08-03T01:46:31.939Z,99.99
2022-08-03T01:47:32.006Z,99.99
2022-08-03T01:48:32.173Z,99.99
2022-08-03T01:49:32.407Z,99.99
2022-08-03T01:50:32.442Z,99.99
2022-08-03T01:52:02.804Z,99.99
2022-08-03T01:52:33.706Z,99.99
2022-08-03T01:53:32.867Z,99.99
2022-08-03T01:54:33.019Z,99.99
2022-08-03T01:55:33.118Z,99.99
2022-08-03T01:56:33.275Z,99.99
2022-08-03T01:57:33.460Z,99.99
2022-08-03T01:58:34.548Z,99.99
2022-08-03T01:59:33.668Z,99.99
2022-08-03T02:00:33.861Z,99.99
2022-08-03T02:02:15.325Z,99.99
2022-08-03T02:02:36.521Z,99.99
2022-08-03T02:03:34.197Z,99.99
2022-08-03T02:04:34.356Z,99.99
2022-08-03T02:05:34.508Z,99.99
2022-08-03T02:07:01.549Z,99.99
2022-08-03T02:07:35.766Z,99.99
2022-08-03T02:08:34.949Z,99.99
2022-08-03T02:09:35.095Z,99.99
2022-08-03T02:10:36.071Z,99.99
2022-08-03T02:11:35.357Z,99.99
2022-08-03T02:12:35.529Z,99.99
2022-08-03T02:13:35.617Z,99.99
2022-08-03T02:14:35.712Z,99.99
2022-08-03T02:15:35.834Z,99.99
2022-08-03T02:16:36.009Z,99.99
2022-08-03T02:17:38.486Z,99.99
2022-08-03T02:18:36.180Z,99.99
2022-08-03T02:19:36.316Z,99.99
2022-08-03T02:20:36.505Z,99.99
2022-08-03T02:21:57.156Z,99.99
2022-08-03T02:22:37.723Z,99.99
2022-08-03T02:23:36.889Z,99.99
2022-08-03T02:24:37.056Z,99.99
2022-08-03T02:25:37.129Z,99.99
2022-08-03T02:26:37.349Z,99.99
2022-08-03T02:27:40.570Z,99.99
2022-08-03T02:28:38.516Z,99.99
2022-08-03T02:29:39.417Z,99.99
2022-08-03T02:30:37.859Z,99.99
2022-08-03T02:31:38.027Z,99.99
2022-08-03T02:32:38.206Z,99.99
2022-08-03T02:33:38.347Z,99.99
2022-08-03T02:34:38.459Z,99.99
2022-08-03T02:35:38.565Z,99.99
2022-08-03T02:36:38.741Z,99.99
2022-08-03T02:37:38.905Z,99.99
2022-08-03T02:38:38.983Z,99.99
2022-08-03T02:39:39.134Z,99.99
2022-08-03T02:40:39.287Z,99.99
2022-08-03T02:41:39.456Z,99.99
2022-08-03T02:42:39.649Z,99.99
2022-08-03T02:44:06.557Z,99.99
2022-08-03T02:44:40.956Z,99.99
2022-08-03T02:45:43.770Z,99.99
2022-08-03T02:46:41.139Z,99.99
2022-08-03T02:47:53.140Z,99.99
2022-08-03T02:48:41.444Z,99.99
2022-08-03T02:49:50.571Z,99.99
2022-08-03T02:50:41.745Z,99.99
2022-08-03T02:51:40.856Z,99.99
2022-08-03T02:52:40.992Z,99.99
2022-08-03T02:53:41.147Z,99.99
2022-08-03T02:54:41.238Z,99.99
2022-08-03T02:55:42.941Z,99.99
2022-08-03T02:56:41.536Z,99.99
2022-08-03T02:57:41.659Z,99.99
2022-08-03T02:58:41.808Z,99.99
2022-08-03T02:59:41.891Z,99.99
2022-08-03T03:00:42.068Z,99.99
2022-08-03T03:01:42.149Z,99.99
2022-08-03T03:02:43.907Z,99.99
2022-08-03T03:03:44.749Z,99.99
2022-08-03T03:04:58.834Z,99.99
2022-08-03T03:05:55.790Z,99.99
2022-08-03T03:06:43.774Z,99.99
2022-08-03T03:07:51.866Z,99.99
2022-08-03T03:08:44.027Z,99.99
2022-08-03T03:09:43.312Z,99.99
2022-08-03T03:10:43.213Z,99.99
2022-08-03T03:11:43.348Z,99.99
2022-08-03T03:12:43.480Z,99.99
2022-08-03T03:13:43.607Z,99.99
2022-08-03T03:14:43.742Z,99.99
2022-08-03T03:15:43.870Z,99.99
2022-08-03T03:16:44.007Z,99.99
2022-08-03T03:17:44.125Z,99.99
2022-08-03T03:18:44.266Z,99.99
2022-08-03T03:19:44.396Z,99.99
2022-08-03T03:20:44.543Z,99.99
2022-08-03T03:21:44.626Z,99.99
2022-08-03T03:22:45.281Z,99.99
2022-08-03T03:23:44.915Z,99.99
2022-08-03T03:24:45.044Z,99.99
2022-08-03T03:25:45.174Z,99.99
2022-08-03T03:26:45.306Z,99.99
2022-08-03T03:27:48.831Z,99.99
2022-08-03T03:28:46.627Z,99.99
2022-08-03T03:29:45.703Z,99.99
2022-08-03T03:30:52.609Z,99.99
2022-08-03T03:31:46.999Z,99.99
2022-08-03T03:32:46.146Z,99.99
2022-08-03T03:33:46.307Z,99.99
2022-08-03T03:34:46.479Z,99.99
2022-08-03T03:35:46.638Z,99.99
2022-08-03T03:36:46.737Z,99.99
2022-08-03T03:37:46.866Z,99.99
2022-08-03T03:38:47.015Z,99.99
2022-08-03T03:39:47.118Z,99.99
2022-08-03T03:40:47.284Z,99.99
2022-08-03T03:41:47.404Z,99.99
2022-08-03T03:42:47.532Z,99.99
2022-08-03T03:43:47.665Z,99.99
2022-08-03T03:44:47.842Z,99.99
2022-08-03T03:45:48.008Z,99.99
2022-08-03T03:46:48.551Z,99.99
2022-08-03T03:47:48.334Z,99.99
2022-08-03T03:48:48.414Z,99.99
2022-08-03T03:49:48.565Z,99.99
2022-08-03T03:50:48.672Z,99.99
2022-08-03T03:51:48.790Z,99.99
2022-08-03T03:52:48.938Z,99.99
2022-08-03T03:53:49.025Z,99.99
2022-08-03T03:54:49.173Z,99.99
2022-08-03T03:55:59.551Z,99.99
2022-08-03T03:56:50.387Z,99.99
2022-08-03T03:57:49.504Z,99.99
2022-08-03T03:58:49.644Z,99.99
2022-08-03T03:59:49.779Z,99.99
2022-08-03T04:00:50.009Z,99.99
2022-08-03T04:01:58.503Z,99.99
2022-08-03T04:02:51.146Z,99.99
2022-08-03T04:03:50.273Z,99.99
2022-08-03T04:04:50.447Z,99.99
2022-08-03T04:05:50.522Z,99.99
2022-08-03T04:06:50.668Z,99.99
2022-08-03T04:07:50.796Z,99.99
2022-08-03T04:08:50.933Z,99.99
2022-08-03T04:09:51.083Z,99.99
2022-08-03T04:10:51.195Z,99.99
2022-08-03T04:11:51.335Z,99.99
2022-08-03T04:12:51.462Z,99.99
2022-08-03T04:13:51.604Z,99.99
2022-08-03T04:14:51.776Z,99.99
2022-08-03T04:15:51.854Z,99.99
2022-08-03T04:16:51.982Z,99.99
2022-08-03T04:17:52.124Z,99.99
2022-08-03T04:18:52.281Z,99.99
2022-08-03T04:19:52.383Z,99.99
2022-08-03T04:20:52.495Z,99.99
2022-08-03T04:21:52.605Z,99.99
2022-08-03T04:22:52.747Z,99.99
2022-08-03T04:23:52.883Z,99.99
2022-08-03T04:24:53.035Z,99.99
2022-08-03T04:25:53.145Z,99.99
2022-08-03T04:26:53.257Z,99.99
2022-08-03T04:28:07.769Z,99.99
2022-08-03T04:28:54.515Z,99.99
2022-08-03T04:29:53.637Z,99.99
2022-08-03T04:30:53.822Z,99.99
2022-08-03T04:31:53.893Z,99.99
2022-08-03T04:32:54.057Z,99.99
2022-08-03T04:33:54.153Z,99.99
2022-08-03T04:34:54.264Z,99.99
2022-08-03T04:36:00.935Z,99.99
2022-08-03T04:36:55.536Z,99.99
2022-08-03T04:37:54.644Z,99.99
2022-08-03T04:38:54.792Z,99.99
2022-08-03T04:39:57.648Z,99.99
2022-08-03T04:40:55.087Z,99.99
2022-08-03T04:42:07.783Z,99.99
2022-08-03T04:42:56.292Z,99.99
2022-08-03T04:43:55.414Z,99.99
2022-08-03T04:45:00.422Z,99.99
2022-08-03T04:45:56.685Z,99.99
2022-08-03T04:46:55.815Z,99.99
2022-08-03T04:47:55.942Z,99.99
2022-08-03T04:48:56.132Z,99.99
2022-08-03T04:49:56.195Z,99.99
2022-08-03T04:50:56.367Z,99.99
2022-08-03T04:51:56.454Z,99.99
2022-08-03T04:52:56.595Z,99.99
2022-08-03T04:53:56.743Z,99.99
2022-08-03T04:54:56.882Z,99.99
2022-08-03T04:55:57.023Z,99.99
2022-08-03T04:56:57.193Z,99.99
2022-08-03T04:57:57.284Z,99.99
2022-08-03T04:58:57.394Z,99.99
2022-08-03T05:00:02.615Z,99.99
2022-08-03T05:00:58.663Z,99.99
2022-08-03T05:01:57.871Z,99.99
2022-08-03T05:02:57.936Z,99.99
2022-08-03T05:03:58.056Z,99.99
2022-08-03T05:04:58.186Z,99.99
2022-08-03T05:06:09.756Z,99.99
2022-08-03T05:06:59.445Z,99.99
2022-08-03T05:08:00.818Z,99.99
2022-08-03T05:08:58.683Z,99.99
2022-08-03T05:10:02.962Z,99.99
2022-08-03T05:10:59.475Z,99.99
2022-08-03T05:11:59.017Z,99.99
2022-08-03T05:12:59.164Z,99.99
2022-08-03T05:13:59.318Z,99.80
2022-08-03T05:14:59.422Z,99.40
2022-08-03T05:15:59.552Z,98.99
2022-08-03T05:16:59.704Z,98.69
2022-08-03T05:17:59.836Z,98.14
2022-08-03T05:18:59.946Z,97.94
2022-08-03T05:20:00.073Z,97.64
2022-08-03T05:21:00.237Z,97.53
2022-08-03T05:22:00.334Z,96.98
2022-08-03T05:23:00.506Z,96.59
2022-08-03T05:24:00.587Z,96.48
2022-08-03T05:25:00.740Z,96.19
2022-08-03T05:26:00.834Z,96.14
2022-08-03T05:27:00.976Z,95.94
2022-08-03T05:28:01.149Z,95.64
2022-08-03T05:29:01.250Z,95.43
2022-08-03T05:30:30.590Z,94.89
2022-08-03T05:31:02.475Z,94.38
2022-08-03T05:32:06.247Z,93.98
2022-08-03T05:33:02.701Z,93.63
2022-08-03T05:34:01.795Z,93.43
2022-08-03T05:35:55.818Z,93.23
2022-08-03T05:36:04.404Z,92.79
2022-08-03T05:37:02.207Z,92.58
2022-08-03T05:38:02.334Z,92.18
2022-08-03T05:39:03.025Z,91.99
2022-08-03T05:40:02.573Z,91.38
2022-08-03T05:41:21.590Z,91.24
2022-08-03T05:42:03.827Z,91.44
2022-08-03T05:43:02.957Z,91.24
2022-08-03T05:44:03.108Z,91.54
2022-08-03T05:45:03.213Z,91.34
2022-08-03T05:46:12.037Z,91.03
2022-08-03T05:47:04.475Z,91.03
2022-08-03T05:48:03.605Z,90.89
2022-08-03T05:49:03.921Z,90.79
2022-08-03T05:50:03.845Z,90.99
2022-08-03T05:51:03.965Z,91.09
2022-08-03T05:52:12.796Z,90.69
2022-08-03T05:53:05.936Z,90.49
2022-08-03T05:54:04.452Z,90.69
2022-08-03T05:55:04.417Z,90.49
2022-08-03T05:56:13.651Z,90.49
2022-08-03T05:57:06.089Z,90.69
2022-08-03T05:58:04.816Z,90.59
2022-08-03T05:59:35.447Z,90.45
2022-08-03T06:00:06.615Z,90.75
2022-08-03T06:01:05.585Z,90.95
2022-08-03T06:02:05.378Z,90.65
2022-08-03T06:03:05.477Z,90.35
2022-08-03T06:04:05.635Z,90.05
2022-08-03T06:05:05.736Z,90.20
2022-08-03T06:06:05.845Z,89.81
2022-08-03T06:07:05.993Z,89.61
2022-08-03T06:08:06.108Z,89.61
2022-08-03T06:09:06.257Z,88.90
2022-08-03T06:10:35.887Z,89.26
2022-08-03T06:11:07.514Z,88.96
2022-08-03T06:12:09.107Z,88.76
2022-08-03T06:13:06.834Z,88.56
2022-08-03T06:14:06.888Z,87.82
2022-08-03T06:15:07.847Z,87.62
2022-08-03T06:16:07.142Z,87.12
2022-08-03T06:17:07.264Z,87.02
2022-08-03T06:18:07.416Z,87.07
2022-08-03T06:19:07.554Z,86.77
2022-08-03T06:20:07.648Z,86.27
2022-08-03T06:21:15.004Z,86.18
2022-08-03T06:22:08.909Z,85.73
2022-08-03T06:23:08.111Z,85.83
2022-08-03T06:24:09.199Z,85.93
2022-08-03T06:25:11.275Z,86.13
2022-08-03T06:26:08.421Z,85.49
2022-08-03T06:27:08.518Z,85.49
2022-08-03T06:28:14.966Z,85.59
2022-08-03T06:29:09.975Z,85.15
2022-08-03T06:30:10.652Z,84.95
2022-08-03T06:31:09.070Z,84.15
2022-08-03T06:32:09.902Z,84.31
2022-08-03T06:33:09.296Z,83.81
2022-08-03T06:34:34.145Z,83.51
2022-08-03T06:35:10.558Z,83.97
2022-08-03T06:36:09.637Z,83.47
2022-08-03T06:37:09.736Z,82.87
2022-08-03T06:38:09.878Z,82.67
2022-08-03T06:39:10.006Z,82.77
2022-08-03T06:40:10.097Z,81.13
2022-08-03T06:41:10.208Z,82.14
2022-08-03T06:42:10.397Z,81.63
2022-08-03T06:43:12.434Z,81.20
2022-08-03T06:44:10.695Z,81.49
2022-08-03T06:45:10.771Z,81.00
2022-08-03T06:46:10.866Z,80.66
2022-08-03T06:47:10.966Z,80.86
2022-08-03T06:48:11.107Z,80.66
2022-08-03T06:49:11.297Z,80.26
2022-08-03T06:50:16.658Z,80.46
2022-08-03T06:51:12.398Z,80.02
2022-08-03T06:52:11.539Z,79.82
2022-08-03T06:53:19.824Z,79.09
2022-08-03T06:54:12.778Z,78.59
2022-08-03T06:55:11.906Z,78.39
2022-08-03T06:56:14.008Z,78.39
2022-08-03T06:57:12.181Z,78.06
2022-08-03T06:58:12.267Z,77.66
2022-08-03T07:00:10.467Z,77.46
2022-08-03T07:00:13.900Z,77.22
2022-08-03T07:01:12.643Z,77.22
2022-08-03T07:02:12.752Z,77.42
2022-08-03T07:03:13.856Z,76.49
2022-08-03T07:04:12.989Z,75.59
2022-08-03T07:05:13.150Z,75.79
2022-08-03T07:06:13.279Z,75.89
2022-08-03T07:07:13.380Z,75.99
2022-08-03T07:08:13.501Z,75.20
2022-08-03T07:09:13.602Z,75.16
2022-08-03T07:10:13.741Z,74.66
2022-08-03T07:11:13.878Z,74.96
2022-08-03T07:12:14.029Z,74.37
2022-08-03T07:13:14.154Z,73.67
2022-08-03T07:14:14.262Z,74.13
2022-08-03T07:15:20.380Z,73.43
2022-08-03T07:16:15.508Z,73.50
2022-08-03T07:17:14.640Z,73.69
2022-08-03T07:18:14.790Z,72.97
2022-08-03T07:19:14.891Z,71.97
2022-08-03T07:20:15.057Z,72.27
2022-08-03T07:21:15.150Z,71.97
2022-08-03T07:22:15.449Z,71.97
2022-08-03T07:23:19.196Z,70.85
2022-08-03T07:24:15.516Z,70.95
2022-08-03T07:25:15.641Z,70.25
2022-08-03T07:26:15.799Z,70.45
2022-08-03T07:27:15.903Z,70.32
2022-08-03T07:28:16.050Z,69.92
2022-08-03T07:29:16.150Z,69.62
2022-08-03T07:30:16.291Z,69.62
2022-08-03T07:31:16.418Z,69.59
2022-08-03T07:32:16.836Z,69.49
2022-08-03T07:33:16.863Z,69.26
2022-08-03T07:34:16.824Z,68.76
2022-08-03T07:35:24.805Z,68.46
2022-08-03T07:36:18.091Z,68.37
2022-08-03T07:37:17.162Z,68.04
2022-08-03T07:38:17.322Z,67.64
2022-08-03T07:39:18.070Z,67.24
2022-08-03T07:40:17.552Z,67.14
2022-08-03T07:41:17.671Z,67.21
2022-08-03T07:42:18.196Z,66.22
2022-08-03T07:43:17.991Z,66.09
2022-08-03T07:44:18.063Z,66.29
2022-08-03T07:45:18.191Z,66.58
2022-08-03T07:46:18.333Z,64.90
2022-08-03T07:47:22.654Z,65.47
2022-08-03T07:48:18.625Z,64.38
2022-08-03T07:49:18.798Z,64.51
2022-08-03T07:50:18.836Z,64.81
2022-08-03T07:51:18.933Z,65.53
2022-08-03T07:52:19.317Z,65.53
2022-08-03T07:53:19.205Z,65.33
2022-08-03T07:54:19.373Z,65.50
2022-08-03T07:55:19.453Z,65.10
2022-08-03T07:56:19.595Z,65.07
2022-08-03T07:57:19.746Z,64.25
2022-08-03T07:58:24.006Z,64.35
2022-08-03T07:59:20.006Z,64.15
2022-08-03T08:00:20.176Z,63.23
2022-08-03T08:01:20.285Z,63.33
2022-08-03T08:02:20.364Z,63.59
2022-08-03T08:03:20.465Z,63.10
2022-08-03T08:04:20.627Z,63.00
2022-08-03T08:05:20.704Z,62.60
2022-08-03T08:06:20.855Z,63.10
2022-08-03T08:07:20.988Z,62.93
2022-08-03T08:08:21.125Z,63.99
2022-08-03T08:09:21.270Z,62.87
2022-08-03T08:10:21.434Z,61.69
2022-08-03T08:11:21.516Z,61.59
2022-08-03T08:12:21.690Z,60.80
2022-08-03T08:13:21.847Z,61.10
2022-08-03T08:14:22.080Z,61.22
2022-08-03T08:15:22.099Z,61.65
2022-08-03T08:16:22.206Z,61.75
2022-08-03T08:17:22.286Z,61.94
2022-08-03T08:18:22.437Z,62.14
2022-08-03T08:19:22.573Z,61.82
2022-08-03T08:20:23.841Z,61.39
2022-08-03T08:21:25.817Z,61.26
2022-08-03T08:22:30.620Z,61.29
2022-08-03T08:23:42.931Z,61.29
2022-08-03T08:24:24.227Z,61.26
2022-08-03T08:25:23.415Z,61.26
2022-08-03T08:26:23.454Z,61.04
2022-08-03T08:27:23.591Z,60.25
2022-08-03T08:28:32.127Z,60.02
2022-08-03T08:29:24.875Z,59.36
2022-08-03T08:30:23.986Z,59.95
2022-08-03T08:31:24.128Z,60.15
2022-08-03T08:32:24.238Z,59.83
2022-08-03T08:33:25.772Z,60.05
2022-08-03T08:34:24.455Z,60.22
2022-08-03T08:35:24.609Z,59.53
2022-08-03T08:36:24.728Z,59.63
2022-08-03T08:37:24.816Z,59.11
2022-08-03T08:38:25.039Z,58.88
2022-08-03T08:39:25.069Z,57.87
2022-08-03T08:40:25.217Z,57.67
2022-08-03T08:41:25.329Z,57.97
2022-08-03T08:42:26.516Z,57.57
2022-08-03T08:43:25.579Z,57.48
2022-08-03T08:44:25.729Z,57.87
2022-08-03T08:45:25.828Z,58.00
2022-08-03T08:46:25.976Z,58.32
2022-08-03T08:47:26.116Z,59.36
2022-08-03T08:48:26.217Z,59.14
2022-08-03T08:49:26.336Z,58.54
2022-08-03T08:50:27.884Z,58.71
2022-08-03T08:51:59.101Z,58.22
2022-08-03T08:52:31.967Z,58.42
2022-08-03T08:53:27.691Z,58.91
2022-08-03T08:54:26.969Z,58.78
2022-08-03T08:55:27.112Z,58.00
2022-08-03T08:56:27.226Z,57.87
2022-08-03T08:57:42.250Z,57.54
2022-08-03T08:58:28.489Z,56.93
2022-08-03T08:59:27.579Z,56.83
2022-08-03T09:00:28.688Z,56.95
2022-08-03T09:01:27.867Z,57.22
2022-08-03T09:02:27.962Z,56.63
2022-08-03T09:03:29.995Z,56.73
2022-08-03T09:04:28.207Z,56.76
2022-08-03T09:05:54.841Z,56.46
2022-08-03T09:06:29.470Z,56.24
2022-08-03T09:07:28.598Z,56.34
2022-08-03T09:08:28.737Z,55.72
2022-08-03T09:10:08.218Z,54.54
2022-08-03T09:10:29.990Z,55.23
2022-08-03T09:11:51.777Z,55.33
2022-08-03T09:12:42.006Z,54.83
2022-08-03T09:13:30.362Z,54.25
2022-08-03T09:14:36.738Z,55.52
2022-08-03T09:15:30.632Z,54.83
2022-08-03T09:16:29.771Z,54.41
2022-08-03T09:17:29.877Z,55.00
2022-08-03T09:18:32.216Z,54.41
2022-08-03T09:19:30.211Z,54.41
2022-08-03T09:20:30.270Z,55.13
2022-08-03T09:21:32.828Z,55.03
2022-08-03T09:22:30.562Z,54.66
2022-08-03T09:23:59.515Z,54.86
2022-08-03T09:24:41.305Z,55.55
2022-08-03T09:25:31.935Z,54.05
2022-08-03T09:26:31.135Z,54.05
2022-08-03T09:27:31.162Z,54.44
2022-08-03T09:28:56.481Z,54.32
2022-08-03T09:29:32.432Z,54.22
2022-08-03T09:30:34.742Z,53.63
2022-08-03T09:31:31.678Z,54.83
2022-08-03T09:32:32.904Z,54.91
2022-08-03T09:33:36.046Z,53.56
2022-08-03T09:34:32.182Z,54.76
2022-08-03T09:35:53.202Z,55.16
2022-08-03T09:36:34.520Z,54.86
2022-08-03T09:38:08.529Z,55.16
2022-08-03T09:38:33.562Z,54.19
2022-08-03T09:39:41.180Z,53.16
2022-08-03T09:40:33.826Z,52.64
2022-08-03T09:41:32.955Z,52.55
2022-08-03T09:42:33.103Z,52.35
2022-08-03T09:43:33.209Z,53.26
2022-08-03T09:44:33.375Z,52.28
2022-08-03T09:45:33.454Z,52.50
2022-08-03T09:46:33.610Z,52.80
2022-08-03T09:47:33.759Z,52.08
2022-08-03T09:48:33.852Z,52.08
2022-08-03T09:49:34.027Z,52.57
2022-08-03T09:50:34.155Z,51.98
2022-08-03T09:52:32.222Z,52.57
2022-08-03T09:52:39.187Z,51.89
2022-08-03T09:53:35.515Z,52.67
2022-08-03T09:54:34.606Z,51.89
2022-08-03T09:56:33.753Z,52.01
2022-08-03T09:56:37.211Z,52.15
2022-08-03T09:57:35.035Z,51.73
2022-08-03T09:58:35.113Z,51.83
2022-08-03T09:59:35.253Z,50.68
2022-08-03T10:00:35.375Z,51.72
2022-08-03T10:01:35.603Z,52.23
2022-08-03T10:02:35.926Z,52.55
2022-08-03T10:03:35.748Z,52.94
2022-08-03T10:04:37.599Z,53.14
2022-08-03T10:05:35.987Z,53.04
2022-08-03T10:06:36.075Z,52.40
2022-08-03T10:07:36.224Z,52.37
2022-08-03T10:08:37.328Z,50.95
2022-08-03T10:09:36.469Z,51.12
2022-08-03T10:10:36.588Z,50.93
2022-08-03T10:11:41.341Z,50.24
2022-08-03T10:12:37.818Z,50.17
2022-08-03T10:13:36.948Z,51.07
2022-08-03T10:14:37.048Z,51.45
2022-08-03T10:16:23.238Z,51.64
2022-08-03T10:16:40.279Z,52.65
2022-08-03T10:17:40.331Z,52.55
2022-08-03T10:18:37.563Z,53.44
2022-08-03T10:19:37.711Z,52.82
2022-08-03T10:20:37.851Z,52.03
2022-08-03T10:21:38.000Z,51.59
2022-08-03T10:22:38.113Z,51.20
2022-08-03T10:23:38.290Z,51.25
2022-08-03T10:24:38.377Z,50.27
2022-08-03T10:25:38.528Z,50.24
2022-08-03T10:26:38.668Z,50.02
2022-08-03T10:27:38.852Z,49.87
2022-08-03T10:28:42.973Z,49.58
2022-08-03T10:29:39.994Z,49.99
2022-08-03T10:30:39.121Z,48.80
2022-08-03T10:31:39.259Z,50.04
2022-08-03T10:32:40.393Z,50.59
2022-08-03T10:33:50.633Z,50.12
2022-08-03T10:34:44.416Z,48.97
2022-08-03T10:35:39.740Z,47.75
2022-08-03T10:36:39.837Z,46.97
2022-08-03T10:37:39.999Z,47.27
2022-08-03T10:38:41.113Z,47.87
2022-08-03T10:39:40.253Z,47.67
2022-08-03T10:40:48.816Z,47.28
2022-08-03T10:41:41.500Z,47.60
2022-08-03T10:42:42.093Z,48.41
2022-08-03T10:43:40.763Z,49.21
2022-08-03T10:44:40.840Z,49.65
2022-08-03T10:45:40.952Z,49.95
2022-08-03T10:46:44.751Z,49.63
2022-08-03T10:47:41.213Z,49.48
2022-08-03T10:48:41.339Z,47.89
2022-08-03T10:49:41.510Z,46.68
2022-08-03T10:50:41.592Z,46.24
2022-08-03T10:51:41.734Z,46.56
2022-08-03T10:52:43.543Z,46.58
2022-08-03T10:53:42.071Z,46.50
2022-08-03T10:54:42.104Z,46.70
2022-08-03T10:55:42.233Z,46.00
2022-08-03T10:56:48.066Z,45.78
2022-08-03T10:57:43.458Z,46.24
2022-08-03T10:58:57.060Z,45.44
2022-08-03T10:59:43.692Z,45.03
2022-08-03T11:00:42.824Z,43.66
2022-08-03T11:01:58.359Z,44.05
2022-08-03T11:02:44.023Z,43.25
2022-08-03T11:03:43.177Z,43.98
2022-08-03T11:04:43.284Z,44.32
2022-08-03T11:05:43.408Z,44.24
2022-08-03T11:06:43.523Z,44.17
2022-08-03T11:07:43.635Z,43.99
2022-08-03T11:08:44.755Z,44.09
2022-08-03T11:09:43.918Z,44.58
2022-08-03T11:10:43.990Z,43.76
2022-08-03T11:11:44.144Z,41.61
2022-08-03T11:12:44.305Z,41.89
2022-08-03T11:13:44.405Z,41.66
2022-08-03T11:14:44.535Z,43.24
2022-08-03T11:15:44.623Z,43.55
2022-08-03T11:16:44.789Z,43.14
2022-08-03T11:17:46.612Z,42.22
2022-08-03T11:18:46.028Z,42.34
2022-08-03T11:19:56.895Z,43.57
2022-08-03T11:20:46.293Z,44.91
2022-08-03T11:21:45.446Z,46.03
2022-08-03T11:22:45.552Z,46.20
2022-08-03T11:24:04.082Z,45.18
2022-08-03T11:24:46.805Z,44.74
2022-08-03T11:25:54.840Z,43.36
2022-08-03T11:26:47.064Z,43.75
2022-08-03T11:27:46.205Z,43.43
2022-08-03T11:28:46.345Z,42.63
2022-08-03T11:29:46.517Z,42.10
2022-08-03T11:30:47.334Z,42.20
2022-08-03T11:31:50.330Z,41.77
2022-08-03T11:32:48.688Z,39.70
2022-08-03T11:33:46.932Z,39.41
2022-08-03T11:34:47.246Z,38.91
2022-08-03T11:35:47.206Z,39.49
2022-08-03T11:36:47.304Z,38.70
2022-08-03T11:38:01.985Z,39.29
2022-08-03T11:38:48.560Z,39.65
2022-08-03T11:39:47.803Z,39.34
2022-08-03T11:40:47.809Z,38.89
2022-08-03T11:41:47.947Z,40.42
2022-08-03T11:42:48.120Z,41.93
2022-08-03T11:43:48.228Z,42.12
2022-08-03T11:44:48.318Z,41.44
2022-08-03T11:45:48.456Z,40.60
2022-08-03T11:46:48.539Z,39.78
2022-08-03T11:47:50.871Z,38.89
2022-08-03T11:48:48.793Z,38.71
2022-08-03T11:49:48.965Z,38.98
2022-08-03T11:50:49.039Z,39.06
2022-08-03T11:51:49.199Z,39.39
2022-08-03T11:52:49.341Z,39.70
2022-08-03T11:53:49.477Z,40.42
2022-08-03T11:54:49.641Z,41.48
2022-08-03T11:55:50.772Z,39.88
2022-08-03T11:56:49.894Z,39.18
2022-08-03T11:58:57.762Z,38.56
2022-08-03T11:59:18.874Z,39.76
2022-08-03T11:59:51.328Z,39.55
2022-08-03T12:00:50.388Z,40.19
2022-08-03T12:01:50.550Z,40.00
2022-08-03T12:02:50.691Z,39.69
2022-08-03T12:03:50.803Z,40.06
2022-08-03T12:04:50.900Z,39.51
2022-08-03T12:05:52.433Z,38.19
2022-08-03T12:06:51.247Z,37.94
2022-08-03T12:08:04.123Z,37.73
2022-08-03T12:08:52.389Z,36.60
2022-08-03T12:09:51.530Z,36.18
2022-08-03T12:10:51.651Z,35.89
2022-08-03T12:12:00.157Z,34.99
2022-08-03T12:12:52.890Z,35.16
2022-08-03T12:14:45.266Z,34.34
2022-08-03T12:14:53.122Z,33.58
2022-08-03T12:15:52.341Z,34.10
2022-08-03T12:16:52.384Z,34.41
2022-08-03T12:17:57.381Z,34.39
2022-08-03T12:18:53.693Z,34.39
2022-08-03T12:19:53.245Z,35.37
2022-08-03T12:20:53.617Z,33.58
2022-08-03T12:21:56.810Z,33.52
2022-08-03T12:22:53.153Z,34.14
2022-08-03T12:23:53.267Z,33.73
2022-08-03T12:24:53.368Z,35.35
2022-08-03T12:25:53.551Z,35.64
2022-08-03T12:26:59.141Z,34.27
2022-08-03T12:27:54.814Z,33.44
2022-08-03T12:28:53.915Z,34.25
2022-08-03T12:29:57.233Z,34.00
2022-08-03T12:30:55.178Z,34.13
2022-08-03T12:31:56.010Z,33.86
2022-08-03T12:32:54.401Z,36.69
2022-08-03T12:33:54.509Z,37.41
2022-08-03T12:34:54.642Z,38.29
2022-08-03T12:35:54.761Z,36.29
2022-08-03T12:36:54.964Z,37.37
2022-08-03T12:37:55.039Z,37.68
2022-08-03T12:38:55.142Z,36.79
2022-08-03T12:40:02.543Z,36.16
2022-08-03T12:40:56.374Z,35.35
2022-08-03T12:41:55.524Z,35.75
2022-08-03T12:42:55.623Z,36.52
2022-08-03T12:43:56.466Z,36.43
2022-08-03T12:44:56.549Z,35.96
2022-08-03T12:45:55.995Z,37.08
2022-08-03T12:46:56.127Z,37.99
2022-08-03T12:47:56.243Z,38.27
2022-08-03T12:48:56.362Z,36.76
2022-08-03T12:49:56.476Z,36.43
2022-08-03T12:50:56.570Z,36.56
2022-08-03T12:51:56.742Z,35.77
2022-08-03T12:52:56.865Z,34.75
2022-08-03T12:53:56.964Z,34.60